sensor_id;sensor_type;location;lat;lon;timestamp;temperature;humidity
37528;DHT22;23372;52.050;4.810;2023-09-30T00:01:43;12.70;99.90
37528;DHT22;23372;52.050;4.810;2023-09-30T00:04:09;12.70;99.90
37528;DHT22;23372;52.050;4.810;2023-09-30T00:06:35;12.60;99.90
37528;DHT22;23372;52.050;4.810;2023-09-30T00:09:01;12.60;99.90
37528;DHT22;23372;52.050;4.810;2023-09-30T00:11:27;12.50;99.90
37528;DHT22;23372;52.050;4.810;2023-09-30T00:13:52;12.60;99.90
37528;DHT22;23372;52.050;4.810;2023-09-30T00:16:18;12.60;99.90
37528;DHT22;23372;52.050;4.810;2023-09-30T00:18:44;12.60;99.90
37528;DHT22;23372;52.050;4.810;2023-09-30T00:21:10;12.60;99.90
37528;DHT22;23372;52.050;4.810;2023-09-30T00:23:35;12.60;99.90
37528;DHT22;23372;52.050;4.810;2023-09-30T00:26:01;12.70;99.90
37528;DHT22;23372;52.050;4.810;2023-09-30T00:28:27;12.60;99.90
37528;DHT22;23372;52.050;4.810;2023-09-30T00:30:53;12.70;99.90
37528;DHT22;23372;52.050;4.810;2023-09-30T00:33:19;12.70;99.90
37528;DHT22;23372;52.050;4.810;2023-09-30T00:35:44;12.80;99.90
37528;DHT22;23372;52.050;4.810;2023-09-30T00:38:10;12.70;99.90
37528;DHT22;23372;52.050;4.810;2023-09-30T00:40:36;12.80;99.90
37528;DHT22;23372;52.050;4.810;2023-09-30T00:43:02;12.80;99.90
37528;DHT22;23372;52.050;4.810;2023-09-30T00:45:28;12.80;99.90
37528;DHT22;23372;52.050;4.810;2023-09-30T00:47:53;12.80;99.90
37528;DHT22;23372;52.050;4.810;2023-09-30T00:50:20;12.80;99.90
37528;DHT22;23372;52.050;4.810;2023-09-30T00:52:47;12.60;99.90
37528;DHT22;23372;52.050;4.810;2023-09-30T00:55:14;12.60;99.90
37528;DHT22;23372;52.050;4.810;2023-09-30T00:57:40;12.50;99.90
37528;DHT22;23372;52.050;4.810;2023-09-30T01:00:07;12.40;99.90
37528;DHT22;23372;52.050;4.810;2023-09-30T01:02:33;12.40;99.90
37528;DHT22;23372;52.050;4.810;2023-09-30T01:05:01;12.30;99.90
37528;DHT22;23372;52.050;4.810;2023-09-30T01:07:26;12.30;99.90
37528;DHT22;23372;52.050;4.810;2023-09-30T01:09:52;12.30;99.90
37528;DHT22;23372;52.050;4.810;2023-09-30T01:12:17;12.30;99.90
37528;DHT22;23372;52.050;4.810;2023-09-30T01:14:43;12.30;99.90
37528;DHT22;23372;52.050;4.810;2023-09-30T01:17:09;12.30;99.90
37528;DHT22;23372;52.050;4.810;2023-09-30T01:19:35;12.40;99.90
37528;DHT22;23372;52.050;4.810;2023-09-30T01:22:01;12.40;99.90
37528;DHT22;23372;52.050;4.810;2023-09-30T01:24:37;12.30;99.90
37528;DHT22;23372;52.050;4.810;2023-09-30T01:27:03;12.40;99.90
37528;DHT22;23372;52.050;4.810;2023-09-30T01:29:29;12.40;99.90
37528;DHT22;23372;52.050;4.810;2023-09-30T01:31:54;12.40;99.90
37528;DHT22;23372;52.050;4.810;2023-09-30T01:34:20;12.50;99.90
37528;DHT22;23372;52.050;4.810;2023-09-30T01:36:46;12.40;99.90
37528;DHT22;23372;52.050;4.810;2023-09-30T01:39:12;12.40;99.90
37528;DHT22;23372;52.050;4.810;2023-09-30T01:41:39;12.40;99.90
37528;DHT22;23372;52.050;4.810;2023-09-30T01:44:05;12.30;99.90
37528;DHT22;23372;52.050;4.810;2023-09-30T01:46:31;12.40;99.90
37528;DHT22;23372;52.050;4.810;2023-09-30T01:48:56;12.30;99.90
37528;DHT22;23372;52.050;4.810;2023-09-30T01:51:22;12.40;99.90
37528;DHT22;23372;52.050;4.810;2023-09-30T01:53:48;12.40;99.90
37528;DHT22;23372;52.050;4.810;2023-09-30T01:56:13;12.40;99.90
37528;DHT22;23372;52.050;4.810;2023-09-30T01:58:39;12.30;99.90
37528;DHT22;23372;52.050;4.810;2023-09-30T02:01:05;12.30;99.90
37528;DHT22;23372;52.050;4.810;2023-09-30T02:03:30;12.40;99.90
37528;DHT22;23372;52.050;4.810;2023-09-30T02:05:57;12.40;99.90
37528;DHT22;23372;52.050;4.810;2023-09-30T02:08:23;12.40;99.90
37528;DHT22;23372;52.050;4.810;2023-09-30T02:10:49;12.50;99.90
37528;DHT22;23372;52.050;4.810;2023-09-30T02:13:16;12.60;99.90
37528;DHT22;23372;52.050;4.810;2023-09-30T02:15:42;12.60;99.90
37528;DHT22;23372;52.050;4.810;2023-09-30T02:18:07;12.60;99.90
37528;DHT22;23372;52.050;4.810;2023-09-30T02:20:33;12.70;99.90
37528;DHT22;23372;52.050;4.810;2023-09-30T02:22:59;12.70;99.90
37528;DHT22;23372;52.050;4.810;2023-09-30T02:25:25;12.80;99.90
37528;DHT22;23372;52.050;4.810;2023-09-30T02:27:50;12.80;99.90
37528;DHT22;23372;52.050;4.810;2023-09-30T02:30:16;12.90;99.90
37528;DHT22;23372;52.050;4.810;2023-09-30T02:32:42;12.90;99.90
37528;DHT22;23372;52.050;4.810;2023-09-30T02:35:09;12.90;99.90
37528;DHT22;23372;52.050;4.810;2023-09-30T02:37:38;12.90;99.90
37528;DHT22;23372;52.050;4.810;2023-09-30T02:40:05;12.90;99.90
37528;DHT22;23372;52.050;4.810;2023-09-30T02:42:35;13.00;99.90
37528;DHT22;23372;52.050;4.810;2023-09-30T02:45:01;12.90;99.90
37528;DHT22;23372;52.050;4.810;2023-09-30T02:47:27;13.00;99.90
37528;DHT22;23372;52.050;4.810;2023-09-30T02:49:54;13.00;99.90
37528;DHT22;23372;52.050;4.810;2023-09-30T02:52:20;13.10;99.90
37528;DHT22;23372;52.050;4.810;2023-09-30T02:54:46;13.10;99.90
37528;DHT22;23372;52.050;4.810;2023-09-30T02:57:11;13.00;99.90
37528;DHT22;23372;52.050;4.810;2023-09-30T02:59:37;13.10;99.90
37528;DHT22;23372;52.050;4.810;2023-09-30T03:02:02;13.00;99.90
37528;DHT22;23372;52.050;4.810;2023-09-30T03:04:32;13.10;99.90
37528;DHT22;23372;52.050;4.810;2023-09-30T03:06:58;13.10;99.90
37528;DHT22;23372;52.050;4.810;2023-09-30T03:09:23;13.10;99.90
37528;DHT22;23372;52.050;4.810;2023-09-30T03:11:49;13.00;99.90
37528;DHT22;23372;52.050;4.810;2023-09-30T03:14:15;13.10;99.90
37528;DHT22;23372;52.050;4.810;2023-09-30T03:16:40;13.10;99.90
37528;DHT22;23372;52.050;4.810;2023-09-30T03:19:07;13.20;99.90
37528;DHT22;23372;52.050;4.810;2023-09-30T03:21:36;13.10;99.90
37528;DHT22;23372;52.050;4.810;2023-09-30T03:24:05;13.10;99.90
37528;DHT22;23372;52.050;4.810;2023-09-30T03:26:33;13.20;99.90
37528;DHT22;23372;52.050;4.810;2023-09-30T03:28:59;13.20;99.90
37528;DHT22;23372;52.050;4.810;2023-09-30T03:31:24;13.20;99.90
37528;DHT22;23372;52.050;4.810;2023-09-30T03:33:51;13.10;99.90
37528;DHT22;23372;52.050;4.810;2023-09-30T03:36:20;13.10;99.90
37528;DHT22;23372;52.050;4.810;2023-09-30T03:38:45;13.20;99.90
37528;DHT22;23372;52.050;4.810;2023-09-30T03:41:11;13.10;99.90
37528;DHT22;23372;52.050;4.810;2023-09-30T03:43:39;13.20;99.90
37528;DHT22;23372;52.050;4.810;2023-09-30T03:46:07;13.20;99.90
37528;DHT22;23372;52.050;4.810;2023-09-30T03:48:33;13.20;99.90
37528;DHT22;23372;52.050;4.810;2023-09-30T03:51:23;13.30;99.90
37528;DHT22;23372;52.050;4.810;2023-09-30T03:53:51;13.20;99.90
37528;DHT22;23372;52.050;4.810;2023-09-30T03:56:17;13.20;99.90
37528;DHT22;23372;52.050;4.810;2023-09-30T03:58:44;13.20;99.90
37528;DHT22;23372;52.050;4.810;2023-09-30T04:01:10;13.20;99.90
37528;DHT22;23372;52.050;4.810;2023-09-30T04:03:49;13.20;99.90
37528;DHT22;23372;52.050;4.810;2023-09-30T04:06:14;13.10;99.90
37528;DHT22;23372;52.050;4.810;2023-09-30T04:08:40;13.20;99.90
37528;DHT22;23372;52.050;4.810;2023-09-30T04:11:06;13.20;99.90
37528;DHT22;23372;52.050;4.810;2023-09-30T04:13:31;13.20;99.90
37528;DHT22;23372;52.050;4.810;2023-09-30T04:15:58;13.10;99.90
37528;DHT22;23372;52.050;4.810;2023-09-30T04:18:24;13.20;99.90
37528;DHT22;23372;52.050;4.810;2023-09-30T04:20:52;13.10;99.90
37528;DHT22;23372;52.050;4.810;2023-09-30T04:23:18;13.20;99.90
37528;DHT22;23372;52.050;4.810;2023-09-30T04:25:45;13.10;99.90
37528;DHT22;23372;52.050;4.810;2023-09-30T04:28:12;13.20;99.90
37528;DHT22;23372;52.050;4.810;2023-09-30T04:30:38;13.00;99.90
37528;DHT22;23372;52.050;4.810;2023-09-30T04:33:04;13.00;99.90
37528;DHT22;23372;52.050;4.810;2023-09-30T04:35:30;13.00;99.90
37528;DHT22;23372;52.050;4.810;2023-09-30T04:37:56;13.00;99.90
37528;DHT22;23372;52.050;4.810;2023-09-30T04:40:26;13.00;99.90
37528;DHT22;23372;52.050;4.810;2023-09-30T04:42:52;13.00;99.90
37528;DHT22;23372;52.050;4.810;2023-09-30T04:45:20;12.90;99.90
37528;DHT22;23372;52.050;4.810;2023-09-30T04:47:46;13.00;99.90
37528;DHT22;23372;52.050;4.810;2023-09-30T04:50:14;13.00;99.90
37528;DHT22;23372;52.050;4.810;2023-09-30T04:52:42;12.90;99.90
37528;DHT22;23372;52.050;4.810;2023-09-30T04:55:08;12.90;99.90
37528;DHT22;23372;52.050;4.810;2023-09-30T04:57:34;12.90;99.90
37528;DHT22;23372;52.050;4.810;2023-09-30T04:59:59;12.80;99.90
37528;DHT22;23372;52.050;4.810;2023-09-30T05:02:26;12.90;99.90
37528;DHT22;23372;52.050;4.810;2023-09-30T05:04:52;12.80;99.90
37528;DHT22;23372;52.050;4.810;2023-09-30T05:07:20;12.80;99.90
37528;DHT22;23372;52.050;4.810;2023-09-30T05:09:47;12.80;99.90
37528;DHT22;23372;52.050;4.810;2023-09-30T05:12:12;12.90;99.90
37528;DHT22;23372;52.050;4.810;2023-09-30T05:14:38;12.80;99.90
37528;DHT22;23372;52.050;4.810;2023-09-30T05:17:04;12.80;99.90
37528;DHT22;23372;52.050;4.810;2023-09-30T05:19:30;12.80;99.90
37528;DHT22;23372;52.050;4.810;2023-09-30T05:21:57;12.70;99.90
37528;DHT22;23372;52.050;4.810;2023-09-30T05:24:23;12.60;99.90
37528;DHT22;23372;52.050;4.810;2023-09-30T05:26:48;12.60;99.90
37528;DHT22;23372;52.050;4.810;2023-09-30T05:29:14;12.40;99.90
37528;DHT22;23372;52.050;4.810;2023-09-30T05:31:39;12.40;99.90
37528;DHT22;23372;52.050;4.810;2023-09-30T05:34:05;12.30;99.90
37528;DHT22;23372;52.050;4.810;2023-09-30T05:36:30;12.30;99.90
37528;DHT22;23372;52.050;4.810;2023-09-30T05:38:56;12.20;99.90
37528;DHT22;23372;52.050;4.810;2023-09-30T05:41:22;12.10;99.90
37528;DHT22;23372;52.050;4.810;2023-09-30T05:43:48;12.10;99.90
37528;DHT22;23372;52.050;4.810;2023-09-30T05:46:15;12.10;99.90
37528;DHT22;23372;52.050;4.810;2023-09-30T05:48:41;12.00;99.90
37528;DHT22;23372;52.050;4.810;2023-09-30T05:51:07;11.90;99.90
37528;DHT22;23372;52.050;4.810;2023-09-30T05:53:32;11.90;99.90
37528;DHT22;23372;52.050;4.810;2023-09-30T05:55:59;11.90;99.90
37528;DHT22;23372;52.050;4.810;2023-09-30T05:58:25;11.90;99.90
37528;DHT22;23372;52.050;4.810;2023-09-30T06:00:52;11.80;99.90
37528;DHT22;23372;52.050;4.810;2023-09-30T06:03:18;11.80;99.90
37528;DHT22;23372;52.050;4.810;2023-09-30T06:05:44;11.90;99.90
37528;DHT22;23372;52.050;4.810;2023-09-30T06:08:10;11.90;99.90
37528;DHT22;23372;52.050;4.810;2023-09-30T06:10:42;12.00;99.90
37528;DHT22;23372;52.050;4.810;2023-09-30T06:13:12;12.00;99.90
37528;DHT22;23372;52.050;4.810;2023-09-30T06:15:39;12.10;99.90
37528;DHT22;23372;52.050;4.810;2023-09-30T06:18:06;12.20;99.90
37528;DHT22;23372;52.050;4.810;2023-09-30T06:20:31;12.20;99.90
37528;DHT22;23372;52.050;4.810;2023-09-30T06:22:57;12.30;99.90
37528;DHT22;23372;52.050;4.810;2023-09-30T06:25:23;12.40;99.90
37528;DHT22;23372;52.050;4.810;2023-09-30T06:27:53;12.60;99.90
37528;DHT22;23372;52.050;4.810;2023-09-30T06:30:20;12.60;99.90
37528;DHT22;23372;52.050;4.810;2023-09-30T06:32:47;12.70;99.90
37528;DHT22;23372;52.050;4.810;2023-09-30T06:35:13;12.90;99.90
37528;DHT22;23372;52.050;4.810;2023-09-30T06:37:40;13.00;99.90
37528;DHT22;23372;52.050;4.810;2023-09-30T06:40:10;13.10;99.90
37528;DHT22;23372;52.050;4.810;2023-09-30T06:42:38;13.30;99.90
37528;DHT22;23372;52.050;4.810;2023-09-30T06:45:05;13.40;99.90
37528;DHT22;23372;52.050;4.810;2023-09-30T06:47:39;13.50;99.90
37528;DHT22;23372;52.050;4.810;2023-09-30T06:50:09;13.60;99.90
37528;DHT22;23372;52.050;4.810;2023-09-30T06:52:39;13.70;99.90
37528;DHT22;23372;52.050;4.810;2023-09-30T06:55:06;13.90;99.90
37528;DHT22;23372;52.050;4.810;2023-09-30T06:57:36;14.10;99.90
37528;DHT22;23372;52.050;4.810;2023-09-30T07:00:06;14.30;99.90
37528;DHT22;23372;52.050;4.810;2023-09-30T07:02:34;14.60;99.90
37528;DHT22;23372;52.050;4.810;2023-09-30T07:04:59;14.60;99.90
37528;DHT22;23372;52.050;4.810;2023-09-30T07:07:25;15.20;99.90
37528;DHT22;23372;52.050;4.810;2023-09-30T07:09:50;15.70;99.90
37528;DHT22;23372;52.050;4.810;2023-09-30T07:12:16;15.70;99.90
37528;DHT22;23372;52.050;4.810;2023-09-30T07:14:42;15.70;99.90
37528;DHT22;23372;52.050;4.810;2023-09-30T07:17:07;15.50;99.90
37528;DHT22;23372;52.050;4.810;2023-09-30T07:19:33;15.60;99.90
37528;DHT22;23372;52.050;4.810;2023-09-30T07:21:58;15.60;99.90
37528;DHT22;23372;52.050;4.810;2023-09-30T07:24:24;15.70;99.90
37528;DHT22;23372;52.050;4.810;2023-09-30T07:26:50;15.90;99.90
37528;DHT22;23372;52.050;4.810;2023-09-30T07:29:16;16.10;99.90
37528;DHT22;23372;52.050;4.810;2023-09-30T07:31:41;16.50;99.90
37528;DHT22;23372;52.050;4.810;2023-09-30T07:34:07;16.40;99.90
37528;DHT22;23372;52.050;4.810;2023-09-30T07:36:32;16.40;99.90
37528;DHT22;23372;52.050;4.810;2023-09-30T07:38:58;16.60;99.90
37528;DHT22;23372;52.050;4.810;2023-09-30T07:41:26;16.60;99.90
37528;DHT22;23372;52.050;4.810;2023-09-30T07:43:52;16.60;99.90
37528;DHT22;23372;52.050;4.810;2023-09-30T07:46:17;16.60;99.90
37528;DHT22;23372;52.050;4.810;2023-09-30T07:48:43;16.60;99.90
37528;DHT22;23372;52.050;4.810;2023-09-30T07:51:08;16.50;99.90
37528;DHT22;23372;52.050;4.810;2023-09-30T07:53:38;17.10;99.90
37528;DHT22;23372;52.050;4.810;2023-09-30T07:56:05;17.90;99.90
37528;DHT22;23372;52.050;4.810;2023-09-30T07:58:31;19.00;99.90
37528;DHT22;23372;52.050;4.810;2023-09-30T08:00:57;21.20;99.90
37528;DHT22;23372;52.050;4.810;2023-09-30T08:03:22;22.00;99.90
37528;DHT22;23372;52.050;4.810;2023-09-30T08:05:48;24.20;99.90
37528;DHT22;23372;52.050;4.810;2023-09-30T08:08:13;24.90;99.90
37528;DHT22;23372;52.050;4.810;2023-09-30T08:10:39;25.00;99.90
37528;DHT22;23372;52.050;4.810;2023-09-30T08:13:05;25.20;99.90
37528;DHT22;23372;52.050;4.810;2023-09-30T08:15:30;25.80;99.90
37528;DHT22;23372;52.050;4.810;2023-09-30T08:17:56;26.70;99.90
37528;DHT22;23372;52.050;4.810;2023-09-30T08:20:21;28.10;99.90
37528;DHT22;23372;52.050;4.810;2023-09-30T08:22:47;29.20;99.90
37528;DHT22;23372;52.050;4.810;2023-09-30T08:25:13;29.60;99.90
37528;DHT22;23372;52.050;4.810;2023-09-30T08:27:38;30.10;99.90
37528;DHT22;23372;52.050;4.810;2023-09-30T08:30:05;29.60;99.90
37528;DHT22;23372;52.050;4.810;2023-09-30T08:32:33;30.30;99.90
37528;DHT22;23372;52.050;4.810;2023-09-30T08:34:58;30.30;99.90
37528;DHT22;23372;52.050;4.810;2023-09-30T08:37:24;30.70;99.90
37528;DHT22;23372;52.050;4.810;2023-09-30T08:39:49;30.20;99.90
37528;DHT22;23372;52.050;4.810;2023-09-30T08:42:16;28.10;99.90
37528;DHT22;23372;52.050;4.810;2023-09-30T08:44:44;26.90;99.90
37528;DHT22;23372;52.050;4.810;2023-09-30T08:47:10;26.70;99.90
37528;DHT22;23372;52.050;4.810;2023-09-30T08:49:37;28.40;99.90
37528;DHT22;23372;52.050;4.810;2023-09-30T08:52:05;28.70;99.90
37528;DHT22;23372;52.050;4.810;2023-09-30T08:54:31;29.60;99.90
37528;DHT22;23372;52.050;4.810;2023-09-30T08:56:58;30.50;99.90
37528;DHT22;23372;52.050;4.810;2023-09-30T08:59:25;29.90;99.90
37528;DHT22;23372;52.050;4.810;2023-09-30T09:01:52;30.40;99.90
37528;DHT22;23372;52.050;4.810;2023-09-30T09:04:18;29.90;99.90
37528;DHT22;23372;52.050;4.810;2023-09-30T09:06:44;29.10;99.90
37528;DHT22;23372;52.050;4.810;2023-09-30T09:09:17;29.40;99.90
37528;DHT22;23372;52.050;4.810;2023-09-30T09:11:46;28.10;99.90
37528;DHT22;23372;52.050;4.810;2023-09-30T09:14:12;28.20;99.90
37528;DHT22;23372;52.050;4.810;2023-09-30T09:16:54;28.10;99.90
37528;DHT22;23372;52.050;4.810;2023-09-30T09:19:19;27.40;99.90
37528;DHT22;23372;52.050;4.810;2023-09-30T09:22:00;25.60;99.90
37528;DHT22;23372;52.050;4.810;2023-09-30T09:24:38;23.60;99.90
37528;DHT22;23372;52.050;4.810;2023-09-30T09:27:11;22.60;99.90
37528;DHT22;23372;52.050;4.810;2023-09-30T09:29:41;21.20;99.90
37528;DHT22;23372;52.050;4.810;2023-09-30T09:32:09;21.20;99.90
37528;DHT22;23372;52.050;4.810;2023-09-30T09:34:35;21.30;99.90
37528;DHT22;23372;52.050;4.810;2023-09-30T09:37:21;21.20;99.90
37528;DHT22;23372;52.050;4.810;2023-09-30T09:39:57;21.50;99.90
37528;DHT22;23372;52.050;4.810;2023-09-30T09:42:31;21.60;99.90
37528;DHT22;23372;52.050;4.810;2023-09-30T09:45:04;21.50;99.90
37528;DHT22;23372;52.050;4.810;2023-09-30T09:47:32;21.60;99.90
37528;DHT22;23372;52.050;4.810;2023-09-30T09:49:59;21.10;99.90
37528;DHT22;23372;52.050;4.810;2023-09-30T09:52:25;21.20;99.90
37528;DHT22;23372;52.050;4.810;2023-09-30T09:54:52;21.10;99.90
37528;DHT22;23372;52.050;4.810;2023-09-30T09:57:18;21.40;99.90
37528;DHT22;23372;52.050;4.810;2023-09-30T09:59:45;21.40;99.90
37528;DHT22;23372;52.050;4.810;2023-09-30T10:02:13;21.50;99.90
37528;DHT22;23372;52.050;4.810;2023-09-30T10:04:41;21.50;99.90
37528;DHT22;23372;52.050;4.810;2023-09-30T10:07:22;21.60;99.90
37528;DHT22;23372;52.050;4.810;2023-09-30T10:09:51;21.80;99.90
37528;DHT22;23372;52.050;4.810;2023-09-30T10:12:18;21.80;99.90
37528;DHT22;23372;52.050;4.810;2023-09-30T10:14:44;21.30;99.90
37528;DHT22;23372;52.050;4.810;2023-09-30T10:17:10;21.30;99.90
37528;DHT22;23372;52.050;4.810;2023-09-30T10:19:36;21.20;99.90
37528;DHT22;23372;52.050;4.810;2023-09-30T10:22:22;21.30;99.90
37528;DHT22;23372;52.050;4.810;2023-09-30T10:24:49;21.40;99.90
37528;DHT22;23372;52.050;4.810;2023-09-30T10:40:48;22.00;99.90
37528;DHT22;23372;52.050;4.810;2023-09-30T10:43:32;22.10;99.90
37528;DHT22;23372;52.050;4.810;2023-09-30T10:45:59;22.00;99.90
37528;DHT22;23372;52.050;4.810;2023-09-30T10:50:52;21.80;99.90
37528;DHT22;23372;52.050;4.810;2023-09-30T10:53:21;22.10;99.90
37528;DHT22;23372;52.050;4.810;2023-09-30T10:55:47;22.00;99.90
37528;DHT22;23372;52.050;4.810;2023-09-30T10:58:19;22.30;99.90
37528;DHT22;23372;52.050;4.810;2023-09-30T11:00:53;22.60;99.90
37528;DHT22;23372;52.050;4.810;2023-09-30T11:03:22;22.60;99.90
37528;DHT22;23372;52.050;4.810;2023-09-30T11:05:48;22.60;99.90
37528;DHT22;23372;52.050;4.810;2023-09-30T11:08:15;22.30;99.90
37528;DHT22;23372;52.050;4.810;2023-09-30T11:10:52;21.90;99.90
37528;DHT22;23372;52.050;4.810;2023-09-30T11:13:19;21.60;99.90
37528;DHT22;23372;52.050;4.810;2023-09-30T11:15:45;21.00;99.90
37528;DHT22;23372;52.050;4.810;2023-09-30T11:18:15;21.00;99.90
37528;DHT22;23372;52.050;4.810;2023-09-30T11:20:42;20.90;99.90
37528;DHT22;23372;52.050;4.810;2023-09-30T11:23:10;20.70;99.90
37528;DHT22;23372;52.050;4.810;2023-09-30T11:25:37;20.40;99.90
37528;DHT22;23372;52.050;4.810;2023-09-30T11:28:16;20.10;99.90
37528;DHT22;23372;52.050;4.810;2023-09-30T11:30:58;20.30;99.90
37528;DHT22;23372;52.050;4.810;2023-09-30T11:33:25;20.50;99.90
37528;DHT22;23372;52.050;4.810;2023-09-30T11:36:00;20.60;99.90
37528;DHT22;23372;52.050;4.810;2023-09-30T11:38:27;21.40;99.90
37528;DHT22;23372;52.050;4.810;2023-09-30T11:41:05;21.90;99.90
37528;DHT22;23372;52.050;4.810;2023-09-30T11:43:33;22.00;99.90
37528;DHT22;23372;52.050;4.810;2023-09-30T11:46:11;22.10;99.90
37528;DHT22;23372;52.050;4.810;2023-09-30T11:48:37;22.10;99.90
37528;DHT22;23372;52.050;4.810;2023-09-30T11:51:03;22.20;99.90
37528;DHT22;23372;52.050;4.810;2023-09-30T11:53:30;22.30;99.90
37528;DHT22;23372;52.050;4.810;2023-09-30T11:55:59;22.20;99.90
37528;DHT22;23372;52.050;4.810;2023-09-30T11:58:27;22.30;99.90
37528;DHT22;23372;52.050;4.810;2023-09-30T12:00:54;22.20;99.90
37528;DHT22;23372;52.050;4.810;2023-09-30T12:03:19;21.80;99.90
37528;DHT22;23372;52.050;4.810;2023-09-30T12:05:45;21.70;99.90
37528;DHT22;23372;52.050;4.810;2023-09-30T12:08:11;21.50;99.90
37528;DHT22;23372;52.050;4.810;2023-09-30T12:10:37;21.30;99.90
37528;DHT22;23372;52.050;4.810;2023-09-30T12:13:03;20.80;99.90
37528;DHT22;23372;52.050;4.810;2023-09-30T12:15:28;21.00;99.90
37528;DHT22;23372;52.050;4.810;2023-09-30T12:17:54;21.20;99.90
37528;DHT22;23372;52.050;4.810;2023-09-30T12:20:19;21.00;99.90
37528;DHT22;23372;52.050;4.810;2023-09-30T12:22:46;20.90;99.90
37528;DHT22;23372;52.050;4.810;2023-09-30T12:25:11;20.90;99.90
37528;DHT22;23372;52.050;4.810;2023-09-30T12:27:37;20.60;99.90
37528;DHT22;23372;52.050;4.810;2023-09-30T12:30:05;20.70;99.90
37528;DHT22;23372;52.050;4.810;2023-09-30T12:32:32;20.70;99.90
37528;DHT22;23372;52.050;4.810;2023-09-30T12:34:57;20.50;99.90
37528;DHT22;23372;52.050;4.810;2023-09-30T12:37:23;20.60;99.90
37528;DHT22;23372;52.050;4.810;2023-09-30T12:39:49;20.60;99.90
37528;DHT22;23372;52.050;4.810;2023-09-30T12:42:14;20.60;99.90
37528;DHT22;23372;52.050;4.810;2023-09-30T12:44:41;20.40;99.90
37528;DHT22;23372;52.050;4.810;2023-09-30T12:47:06;20.40;99.90
37528;DHT22;23372;52.050;4.810;2023-09-30T12:49:32;20.40;99.90
37528;DHT22;23372;52.050;4.810;2023-09-30T12:51:57;20.20;99.90
37528;DHT22;23372;52.050;4.810;2023-09-30T12:54:24;20.10;99.90
37528;DHT22;23372;52.050;4.810;2023-09-30T12:56:50;19.90;99.90
37528;DHT22;23372;52.050;4.810;2023-09-30T12:59:16;19.80;99.90
37528;DHT22;23372;52.050;4.810;2023-09-30T13:01:43;19.80;99.90
37528;DHT22;23372;52.050;4.810;2023-09-30T13:04:09;19.70;99.90
37528;DHT22;23372;52.050;4.810;2023-09-30T13:06:35;19.70;99.90
37528;DHT22;23372;52.050;4.810;2023-09-30T13:09:03;19.70;99.90
37528;DHT22;23372;52.050;4.810;2023-09-30T13:11:30;19.50;99.90
37528;DHT22;23372;52.050;4.810;2023-09-30T13:13:55;19.60;99.90
37528;DHT22;23372;52.050;4.810;2023-09-30T13:16:21;19.60;99.90
37528;DHT22;23372;52.050;4.810;2023-09-30T13:18:47;19.60;99.90
37528;DHT22;23372;52.050;4.810;2023-09-30T13:21:13;19.50;99.90
37528;DHT22;23372;52.050;4.810;2023-09-30T13:23:38;19.50;99.90
37528;DHT22;23372;52.050;4.810;2023-09-30T13:26:04;19.50;99.90
37528;DHT22;23372;52.050;4.810;2023-09-30T13:28:30;19.60;99.90
37528;DHT22;23372;52.050;4.810;2023-09-30T13:30:55;19.40;99.90
37528;DHT22;23372;52.050;4.810;2023-09-30T13:33:21;19.40;99.90
37528;DHT22;23372;52.050;4.810;2023-09-30T13:35:46;19.40;99.90
37528;DHT22;23372;52.050;4.810;2023-09-30T13:38:12;19.40;99.90
37528;DHT22;23372;52.050;4.810;2023-09-30T13:40:38;19.60;99.90
37528;DHT22;23372;52.050;4.810;2023-09-30T13:43:05;19.60;99.90
37528;DHT22;23372;52.050;4.810;2023-09-30T13:45:31;19.50;99.90
37528;DHT22;23372;52.050;4.810;2023-09-30T13:47:56;19.50;99.90
37528;DHT22;23372;52.050;4.810;2023-09-30T13:50:22;19.50;99.90
37528;DHT22;23372;52.050;4.810;2023-09-30T13:52:47;19.50;99.90
37528;DHT22;23372;52.050;4.810;2023-09-30T13:55:13;19.60;99.90
37528;DHT22;23372;52.050;4.810;2023-09-30T13:57:47;19.70;99.90
37528;DHT22;23372;52.050;4.810;2023-09-30T14:00:14;19.60;99.90
37528;DHT22;23372;52.050;4.810;2023-09-30T14:02:40;19.60;99.90
37528;DHT22;23372;52.050;4.810;2023-09-30T14:05:06;19.60;99.90
37528;DHT22;23372;52.050;4.810;2023-09-30T14:07:35;19.70;99.90
37528;DHT22;23372;52.050;4.810;2023-09-30T14:10:02;19.50;99.90
37528;DHT22;23372;52.050;4.810;2023-09-30T14:12:29;19.40;99.90
37528;DHT22;23372;52.050;4.810;2023-09-30T14:14:54;19.40;99.90
37528;DHT22;23372;52.050;4.810;2023-09-30T14:17:20;19.40;99.90
37528;DHT22;23372;52.050;4.810;2023-09-30T14:19:46;19.40;99.90
37528;DHT22;23372;52.050;4.810;2023-09-30T14:22:11;19.50;99.90
37528;DHT22;23372;52.050;4.810;2023-09-30T14:24:37;19.50;99.90
37528;DHT22;23372;52.050;4.810;2023-09-30T14:27:03;19.50;99.90
37528;DHT22;23372;52.050;4.810;2023-09-30T14:29:32;19.60;99.90
37528;DHT22;23372;52.050;4.810;2023-09-30T14:31:57;19.70;99.90
37528;DHT22;23372;52.050;4.810;2023-09-30T14:34:24;19.70;99.90
37528;DHT22;23372;52.050;4.810;2023-09-30T14:36:50;19.80;99.90
37528;DHT22;23372;52.050;4.810;2023-09-30T14:39:16;19.90;99.90
37528;DHT22;23372;52.050;4.810;2023-09-30T14:41:43;19.90;99.90
37528;DHT22;23372;52.050;4.810;2023-09-30T14:44:08;19.70;99.90
37528;DHT22;23372;52.050;4.810;2023-09-30T14:46:40;19.80;99.90
37528;DHT22;23372;52.050;4.810;2023-09-30T14:49:06;19.70;99.90
37528;DHT22;23372;52.050;4.810;2023-09-30T14:51:32;19.50;99.90
37528;DHT22;23372;52.050;4.810;2023-09-30T14:53:57;19.70;99.90
37528;DHT22;23372;52.050;4.810;2023-09-30T14:56:23;19.50;99.90
37528;DHT22;23372;52.050;4.810;2023-09-30T14:58:48;19.50;99.90
37528;DHT22;23372;52.050;4.810;2023-09-30T15:01:14;19.60;99.90
37528;DHT22;23372;52.050;4.810;2023-09-30T15:03:40;19.60;99.90
37528;DHT22;23372;52.050;4.810;2023-09-30T15:06:06;19.80;99.90
37528;DHT22;23372;52.050;4.810;2023-09-30T15:08:32;19.80;99.90
37528;DHT22;23372;52.050;4.810;2023-09-30T15:11:02;19.90;99.90
37528;DHT22;23372;52.050;4.810;2023-09-30T15:13:28;19.60;99.90
37528;DHT22;23372;52.050;4.810;2023-09-30T15:15:55;19.60;99.90
37528;DHT22;23372;52.050;4.810;2023-09-30T15:18:20;19.30;99.90
37528;DHT22;23372;52.050;4.810;2023-09-30T15:20:46;19.30;99.90
37528;DHT22;23372;52.050;4.810;2023-09-30T15:23:13;19.20;99.90
37528;DHT22;23372;52.050;4.810;2023-09-30T15:25:41;19.10;99.90
37528;DHT22;23372;52.050;4.810;2023-09-30T15:28:08;19.00;99.90
37528;DHT22;23372;52.050;4.810;2023-09-30T15:30:34;18.80;99.90
37528;DHT22;23372;52.050;4.810;2023-09-30T15:33:00;18.80;99.90
37528;DHT22;23372;52.050;4.810;2023-09-30T15:35:27;18.80;99.90
37528;DHT22;23372;52.050;4.810;2023-09-30T15:37:53;18.70;99.90
37528;DHT22;23372;52.050;4.810;2023-09-30T15:40:19;18.80;99.90
37528;DHT22;23372;52.050;4.810;2023-09-30T15:42:44;18.80;99.90
37528;DHT22;23372;52.050;4.810;2023-09-30T15:45:11;18.80;99.90